Time;durP1;ratioP1;P1;durP2;ratioP2;P2;SDS_P1;SDS_P2;PMS_P1;PMS_P2;Temp;Humidity;BMP_temperature;BMP_pressure;BME280_temperature;BME280_humidity;BME280_pressure;Samples;Min_cycle;Max_cycle;Signal;HPM_P1;HPM_P2
2023/10/07 00:00:56;;;;;;;7.20;3.40;;;16.00;93.50;;;;;;5076839;28;19975;-78
2023/10/07 00:03:23;;;;;;;9.93;4.25;;;15.90;93.50;;;;;;5059207;28;20021;-77
2023/10/07 00:05:50;;;;;;;9.80;4.55;;;15.90;93.60;;;;;;5059069;28;20496;-78
2023/10/07 00:08:19;;;;;;;7.05;3.85;;;15.90;93.70;;;;;;5059076;28;20093;-78
2023/10/07 00:10:49;;;;;;;8.93;4.05;;;15.90;93.70;;;;;;5076741;28;20048;-78
2023/10/07 00:13:20;;;;;;;10.50;3.90;;;15.90;93.70;;;;;;5058965;28;20036;-78
2023/10/07 00:15:51;;;;;;;8.02;3.72;;;15.80;93.80;;;;;;5075756;28;20024;-78
2023/10/07 00:18:22;;;;;;;9.48;3.40;;;15.80;93.90;;;;;;5058943;28;20051;-78
2023/10/07 00:20:54;;;;;;;8.13;3.92;;;15.80;94.10;;;;;;5076512;28;20056;-77
2023/10/07 00:23:21;;;;;;;7.90;3.83;;;15.80;94.10;;;;;;5076662;28;20032;-77
2023/10/07 00:25:51;;;;;;;11.20;4.45;;;15.80;94.10;;;;;;5058722;28;20036;-77
2023/10/07 00:28:19;;;;;;;6.68;4.10;;;15.80;94.10;;;;;;5058876;28;20039;-78
2023/10/07 00:30:54;;;;;;;7.07;3.72;;;15.80;94.20;;;;;;5058573;28;20032;-78
2023/10/07 00:33:22;;;;;;;8.45;3.63;;;15.80;94.20;;;;;;5058621;28;20096;-77
2023/10/07 00:35:55;;;;;;;7.18;3.53;;;15.80;94.40;;;;;;5076127;28;20052;-77
2023/10/07 00:38:29;;;;;;;9.32;4.18;;;15.80;94.40;;;;;;5076211;28;20036;-78
2023/10/07 00:40:54;;;;;;;9.10;3.80;;;15.90;94.30;;;;;;5058420;28;20028;-78
2023/10/07 00:43:27;;;;;;;9.82;4.03;;;15.80;94.40;;;;;;5058375;28;20123;-78
2023/10/07 00:46:10;;;;;;;8.25;3.97;;;15.90;94.40;;;;;;5058315;28;20025;-78
2023/10/07 00:48:47;;;;;;;9.38;4.35;;;15.80;94.40;;;;;;5058349;28;20025;-78
2023/10/07 00:51:49;;;;;;;12.75;4.72;;;15.90;94.40;;;;;;5058310;28;20040;-77
2023/10/07 00:56:52;;;;;;;8.18;4.43;;;15.90;94.40;;;;;;5076066;28;20060;-77
2023/10/07 00:59:19;;;;;;;8.15;3.90;;;15.80;94.50;;;;;;5058025;28;20101;-78
2023/10/07 01:01:47;;;;;;;8.10;4.53;;;15.90;94.60;;;;;;5058254;28;20037;-77
2023/10/07 01:04:16;;;;;;;10.38;4.18;;;15.80;94.70;;;;;;5058442;28;20021;-77
2023/10/07 01:06:45;;;;;;;9.90;4.40;;;15.80;94.80;;;;;;5074728;28;20029;-77
2023/10/07 01:09:22;;;;;;;7.45;3.85;;;15.80;94.80;;;;;;5057967;28;20416;-78
2023/10/07 01:11:58;;;;;;;7.28;4.10;;;15.90;94.80;;;;;;5074792;28;20032;-77
2023/10/07 01:14:27;;;;;;;11.82;5.38;;;15.80;95.00;;;;;;5074706;28;20051;-78
2023/10/07 01:16:53;;;;;;;12.57;4.90;;;15.80;95.10;;;;;;5075439;28;20025;-77
2023/10/07 01:19:28;;;;;;;10.50;4.22;;;15.80;95.10;;;;;;5075368;28;20017;-78
2023/10/07 01:21:57;;;;;;;9.50;4.82;;;15.80;95.10;;;;;;5074596;28;20029;-78
2023/10/07 01:27:19;;;;;;;6.82;4.70;;;15.70;95.30;;;;;;5074694;28;20044;-78
2023/10/07 01:31:06;;;;;;;9.77;4.80;;;15.70;95.40;;;;;;5057567;28;20021;-78
2023/10/07 01:32:53;;;;;;;11.35;5.15;;;15.70;95.50;;;;;;5065459;28;20029;-78
2023/10/07 01:35:25;;;;;;;10.45;4.90;;;15.70;95.50;;;;;;5057392;28;20025;-77
2023/10/07 01:38:31;;;;;;;11.32;5.47;;;15.70;95.60;;;;;;5057308;28;20071;-77
2023/10/07 01:43:19;;;;;;;10.20;5.35;;;15.60;95.70;;;;;;5058473;28;20033;-77
2023/10/07 01:45:47;;;;;;;12.70;5.40;;;15.70;95.70;;;;;;5040942;28;20042;-78
2023/10/07 01:48:13;;;;;;;12.88;5.47;;;15.70;95.80;;;;;;5057220;28;20021;-78
2023/10/07 01:50:44;;;;;;;10.13;5.32;;;15.70;95.70;;;;;;5073865;28;20059;-77
2023/10/07 01:53:14;;;;;;;11.38;5.97;;;15.70;95.80;;;;;;5057121;28;20033;-78
2023/10/07 01:55:46;;;;;;;13.93;5.90;;;15.70;95.70;;;;;;5074059;28;20029;-77
2023/10/07 01:58:16;;;;;;;;;;;15.60;96.00;;;;;;5075118;28;20029;-77
2023/10/07 02:00:51;;;;;;;10.82;5.30;;;15.70;95.90;;;;;;5040496;28;19913;-78
2023/10/07 02:03:21;;;;;;;14.88;6.15;;;15.60;95.90;;;;;;5074602;28;20045;-77
2023/10/07 02:05:47;;;;;;;12.27;5.57;;;15.70;96.00;;;;;;5056933;28;20017;-78
2023/10/07 02:08:20;;;;;;;9.98;5.53;;;15.60;96.20;;;;;;5056803;28;20025;-77
2023/10/07 02:10:59;;;;;;;13.85;5.95;;;15.60;96.00;;;;;;5073010;28;20025;-78
2023/10/07 02:13:27;;;;;;;13.30;5.90;;;15.60;96.10;;;;;;5074442;28;20084;-77
2023/10/07 02:15:57;;;;;;;12.27;5.70;;;15.70;96.20;;;;;;5056624;28;20029;-78
2023/10/07 02:18:26;;;;;;;14.32;6.60;;;15.60;96.30;;;;;;5073445;28;20025;-78
2023/10/07 02:20:53;;;;;;;10.48;5.68;;;15.60;96.30;;;;;;5056563;28;20059;-78
2023/10/07 02:23:36;;;;;;;14.32;5.97;;;15.60;96.30;;;;;;5074217;28;20041;-78
2023/10/07 02:26:23;;;;;;;11.27;5.60;;;15.70;96.30;;;;;;5056512;28;20025;-78
2023/10/07 02:28:52;;;;;;;12.60;6.35;;;15.70;96.50;;;;;;5055942;28;20033;-77
2023/10/07 02:31:24;;;;;;;13.13;5.95;;;15.60;96.50;;;;;;5056345;28;20056;-78
2023/10/07 02:33:57;;;;;;;11.50;6.55;;;15.70;96.50;;;;;;5056397;28;20116;-78
2023/10/07 02:38:56;;;;;;;12.75;6.50;;;15.70;96.50;;;;;;5074116;28;20040;-78
2023/10/07 02:41:24;;;;;;;14.80;6.47;;;15.70;96.50;;;;;;5039780;28;20025;-78
2023/10/07 02:43:50;;;;;;;14.20;7.78;;;15.80;96.60;;;;;;5056225;28;20116;-78
2023/10/07 02:46:32;;;;;;;14.57;6.97;;;15.80;96.60;;;;;;5073767;28;20033;-78
2023/10/07 02:49:10;;;;;;;13.18;6.03;;;15.80;96.70;;;;;;5056132;28;20037;-77
2023/10/07 02:51:39;;;;;;;16.27;6.65;;;15.80;96.70;;;;;;5056147;28;20056;-78
2023/10/07 02:55:12;;;;;;;13.38;6.63;;;15.80;96.60;;;;;;5056609;28;20033;-77
2023/10/07 02:59:36;;;;;;;15.30;7.28;;;15.80;96.70;;;;;;5072837;28;20096;-78
2023/10/07 03:02:12;;;;;;;13.48;7.35;;;15.80;96.90;;;;;;5055812;28;20032;-78
2023/10/07 03:04:42;;;;;;;15.48;6.85;;;15.90;96.90;;;;;;5055893;28;20044;-77
2023/10/07 03:07:14;;;;;;;13.77;7.47;;;15.80;97.20;;;;;;5073443;28;20045;-77
2023/10/07 03:10:04;;;;;;;17.45;8.00;;;15.80;97.30;;;;;;5055764;28;20608;-78
2023/10/07 03:12:31;;;;;;;17.27;8.70;;;15.80;97.30;;;;;;5055760;28;20032;-78
2023/10/07 03:15:05;;;;;;;19.15;8.52;;;15.90;97.30;;;;;;5073281;28;20020;-78
2023/10/07 03:17:37;;;;;;;13.90;7.80;;;15.80;97.20;;;;;;5055722;28;20051;-78
2023/10/07 03:25:55;;;;;;;19.02;8.32;;;15.90;97.60;;;;;;5073472;28;20506;-78
2023/10/07 03:28:23;;;;;;;17.00;8.20;;;15.80;97.70;;;;;;5072959;28;20021;-77
2023/10/07 03:30:52;;;;;;;17.98;8.93;;;15.80;97.90;;;;;;5072296;28;20029;-78
2023/10/07 03:33:42;;;;;;;16.75;8.85;;;15.80;97.80;;;;;;5055670;28;20044;-78
2023/10/07 03:36:29;;;;;;;16.60;9.18;;;15.80;97.90;;;;;;5055286;28;20032;-78
2023/10/07 03:41:59;;;;;;;18.25;9.13;;;15.90;98.00;;;;;;5058107;28;20052;-77
2023/10/07 03:44:25;;;;;;;19.35;9.70;;;15.80;98.20;;;;;;5072374;28;20022;-78
2023/10/07 03:46:54;;;;;;;17.77;9.00;;;15.80;98.40;;;;;;5055444;28;20025;-78
2023/10/07 03:49:40;;;;;;;23.10;10.63;;;15.80;98.50;;;;;;5055300;28;20040;-78
2023/10/07 03:52:12;;;;;;;16.77;9.10;;;15.90;98.40;;;;;;5057095;28;20049;-78
2023/10/07 03:54:43;;;;;;;21.73;9.75;;;15.90;98.30;;;;;;5072988;28;20036;-78
2023/10/07 03:57:09;;;;;;;25.52;10.52;;;15.90;98.40;;;;;;5072933;28;20048;-78
2023/10/07 03:59:36;;;;;;;20.25;9.93;;;15.90;98.40;;;;;;5072903;28;20055;-78
2023/10/07 04:02:12;;;;;;;20.42;10.13;;;16.00;98.50;;;;;;5072837;28;20025;-78
2023/10/07 04:04:41;;;;;;;19.83;10.55;;;16.00;98.50;;;;;;5072914;28;20017;-78
2023/10/07 04:07:08;;;;;;;23.58;10.43;;;16.00;98.50;;;;;;5055130;28;20025;-78
2023/10/07 04:09:33;;;;;;;21.88;10.90;;;16.00;98.60;;;;;;5038778;28;20021;-78
2023/10/07 04:11:59;;;;;;;23.08;11.70;;;16.00;98.60;;;;;;5038706;28;20097;-78
2023/10/07 04:14:27;;;;;;;19.95;9.75;;;16.10;98.40;;;;;;5055226;28;20036;-77
2023/10/07 04:16:54;;;;;;;27.02;11.73;;;16.00;98.60;;;;;;5055012;28;20068;-78
2023/10/07 04:21:51;;;;;;;24.38;10.77;;;16.10;98.60;;;;;;5072655;28;20029;-78
2023/10/07 04:24:20;;;;;;;20.45;10.77;;;16.10;98.50;;;;;;5038892;28;20026;-78
2023/10/07 04:27:02;;;;;;;19.70;10.73;;;16.10;98.60;;;;;;5055066;28;20051;-78
2023/10/07 04:29:28;;;;;;;23.13;10.73;;;16.10;98.60;;;;;;5057225;28;20044;-78
2023/10/07 04:31:54;;;;;;;19.95;10.55;;;16.10;98.60;;;;;;5072564;28;20059;-78
2023/10/07 04:34:26;;;;;;;21.65;11.32;;;16.20;98.70;;;;;;5058254;28;20024;-78
2023/10/07 04:39:37;;;;;;;24.08;11.90;;;16.10;98.70;;;;;;5076290;28;20045;-78
2023/10/07 04:42:04;;;;;;;24.55;11.35;;;16.10;99.00;;;;;;5042938;28;20049;-78
2023/10/07 04:50:04;;;;;;;23.67;12.65;;;16.20;99.00;;;;;;5060731;28;20097;-78
2023/10/07 04:52:31;;;;;;;21.50;11.70;;;16.20;99.40;;;;;;5044073;28;20100;-78
2023/10/07 04:55:01;;;;;;;26.52;11.95;;;16.20;99.00;;;;;;5058316;28;20025;-78
2023/10/07 04:57:44;;;;;;;25.50;12.68;;;16.10;99.10;;;;;;5058244;28;20054;-78
2023/10/07 05:00:47;;;;;;;23.48;12.85;;;16.10;99.20;;;;;;5075775;28;20028;-77
2023/10/07 05:03:15;;;;;;;20.27;11.25;;;16.20;99.30;;;;;;5070747;28;20049;-77
2023/10/07 05:05:44;;;;;;;26.77;12.98;;;16.20;99.30;;;;;;5075775;28;20028;-77
2023/10/07 05:08:17;;;;;;;29.17;13.40;;;16.20;99.30;;;;;;5075626;28;20027;-78
2023/10/07 05:10:50;;;;;;;27.27;12.50;;;16.20;99.30;;;;;;5058054;28;20025;-77
2023/10/07 05:13:16;;;;;;;27.75;12.50;;;16.20;99.30;;;;;;5075611;28;20025;-78
2023/10/07 05:15:42;;;;;;;27.27;12.75;;;16.20;99.30;;;;;;5041335;28;20021;-78
2023/10/07 05:18:12;;;;;;;27.15;12.65;;;16.30;99.40;;;;;;5075466;28;20127;-78
2023/10/07 05:20:43;;;;;;;21.80;11.50;;;16.30;99.40;;;;;;5057799;28;20029;-78
2023/10/07 05:23:14;;;;;;;32.67;12.88;;;16.30;99.40;;;;;;5075383;28;20032;-78
2023/10/07 05:25:48;;;;;;;27.27;12.77;;;16.30;99.30;;;;;;5041497;28;20025;-78
2023/10/07 05:28:17;;;;;;;25.30;12.55;;;16.30;99.20;;;;;;5042415;28;20026;-78
2023/10/07 05:30:53;;;;;;;25.00;11.07;;;16.30;99.10;;;;;;5057480;28;20096;-78
2023/10/07 05:33:22;;;;;;;27.38;12.55;;;16.30;99.20;;;;;;5042249;28;20033;-78
2023/10/07 05:35:49;;;;;;;20.95;11.20;;;16.40;99.10;;;;;;5057931;28;20031;-78
2023/10/07 05:38:19;;;;;;;23.20;11.68;;;16.40;99.20;;;;;;5057525;28;20041;-78
2023/10/07 05:40:46;;;;;;;22.25;11.63;;;16.30;99.30;;;;;;5075221;28;20029;-78
2023/10/07 05:43:12;;;;;;;25.40;12.55;;;16.30;99.30;;;;;;5057293;28;20021;-78
2023/10/07 05:45:40;;;;;;;23.05;11.98;;;16.30;99.30;;;;;;5056438;28;20044;-77
2023/10/07 05:48:07;;;;;;;23.25;11.60;;;16.30;99.30;;;;;;5041109;28;20039;-78
2023/10/07 05:50:34;;;;;;;21.83;10.80;;;16.30;99.40;;;;;;5057761;28;20024;-78
2023/10/07 05:53:03;;;;;;;22.35;11.93;;;16.30;99.40;;;;;;5040695;28;20029;-78
2023/10/07 05:55:29;;;;;;;26.27;10.73;;;16.40;99.30;;;;;;5057744;28;20036;-78
2023/10/07 05:57:55;;;;;;;23.55;10.90;;;16.40;99.30;;;;;;5040717;28;20053;-78
2023/10/07 06:00:24;;;;;;;19.10;10.73;;;16.30;99.40;;;;;;5040414;28;20036;-78
2023/10/07 06:02:51;;;;;;;20.15;10.15;;;16.40;99.40;;;;;;5074819;28;20028;-78
2023/10/07 06:05:19;;;;;;;19.95;9.75;;;16.40;99.30;;;;;;5074703;28;20025;-78
2023/10/07 06:07:44;;;;;;;21.05;9.93;;;16.40;99.30;;;;;;5074547;28;20035;-78
2023/10/07 06:10:10;;;;;;;21.30;9.85;;;16.40;99.30;;;;;;5057148;28;20033;-78
2023/10/07 06:12:36;;;;;;;21.55;9.90;;;16.40;99.30;;;;;;5056969;28;20029;-77
2023/10/07 06:15:08;;;;;;;17.48;9.02;;;16.40;99.30;;;;;;5056792;28;20028;-77
2023/10/07 06:17:36;;;;;;;16.95;9.15;;;16.40;99.40;;;;;;5073603;28;20037;-77
2023/10/07 06:20:14;;;;;;;21.98;9.93;;;16.40;99.30;;;;;;5056572;28;20036;-77
2023/10/07 06:22:48;;;;;;;18.65;9.30;;;16.40;99.20;;;;;;5056662;28;20032;-77
2023/10/07 06:25:17;;;;;;;19.38;8.32;;;16.50;99.20;;;;;;5073346;28;20017;-77
2023/10/07 06:27:43;;;;;;;14.95;8.35;;;16.50;99.10;;;;;;5074106;28;20029;-77
2023/10/07 06:30:20;;;;;;;15.75;8.95;;;16.50;99.00;;;;;;5056210;28;20036;-78
2023/10/07 06:32:54;;;;;;;16.63;8.70;;;16.50;99.00;;;;;;5056446;28;20017;-78
2023/10/07 06:35:25;;;;;;;20.00;8.63;;;16.50;99.00;;;;;;5073960;28;20048;-78
2023/10/07 06:37:52;;;;;;;18.60;8.32;;;16.50;99.00;;;;;;5056175;28;20054;-78
2023/10/07 06:40:28;;;;;;;17.95;8.00;;;16.60;98.90;;;;;;5056222;28;20029;-78
2023/10/07 06:43:01;;;;;;;18.67;7.65;;;16.60;98.80;;;;;;5073090;28;20029;-78
2023/10/07 06:45:36;;;;;;;14.27;7.57;;;16.50;98.90;;;;;;5073883;28;20020;-78
2023/10/07 06:48:08;;;;;;;17.00;7.85;;;16.50;99.00;;;;;;5056187;28;20093;-78
2023/10/07 06:50:41;;;;;;;14.18;6.80;;;16.40;99.00;;;;;;5056150;28;20053;-78
2023/10/07 06:53:12;;;;;;;13.75;7.20;;;16.50;99.10;;;;;;5056248;28;20025;-78
2023/10/07 06:55:41;;;;;;;14.15;7.45;;;16.50;99.00;;;;;;5055771;28;20043;-78
2023/10/07 06:58:07;;;;;;;17.75;7.47;;;16.50;98.90;;;;;;5055906;28;20032;-78
2023/10/07 07:00:48;;;;;;;18.63;7.20;;;16.50;98.90;;;;;;5055913;28;20037;-78
2023/10/07 07:03:17;;;;;;;15.65;7.45;;;16.50;98.90;;;;;;5055969;28;20032;-80
2023/10/07 07:05:45;;;;;;;13.18;6.90;;;16.50;98.90;;;;;;5055839;28;20090;-78
2023/10/07 07:08:14;;;;;;;16.60;7.53;;;16.60;98.90;;;;;;5055812;28;20048;-78
2023/10/07 07:10:41;;;;;;;12.65;7.10;;;16.60;98.70;;;;;;5073432;28;20029;-78
2023/10/07 07:13:15;;;;;;;16.38;6.90;;;16.60;98.60;;;;;;5073363;28;20028;-78
2023/10/07 07:15:47;;;;;;;18.55;7.63;;;16.70;98.70;;;;;;5073360;28;20112;-78
2023/10/07 07:23:49;;;;;;;12.35;6.53;;;16.60;98.80;;;;;;5018475;28;20029;-78
2023/10/07 07:26:20;;;;;;;17.30;6.65;;;16.70;98.80;;;;;;5055753;28;20029;-78
2023/10/07 07:28:47;;;;;;;13.07;7.00;;;16.70;98.80;;;;;;5055640;28;20013;-78
2023/10/07 07:31:19;;;;;;;15.18;7.57;;;16.70;98.70;;;;;;5055534;28;20271;-78
2023/10/07 07:33:50;;;;;;;13.13;6.40;;;16.70;98.70;;;;;;5073248;28;20032;-80
2023/10/07 07:36:35;;;;;;;15.95;7.05;;;16.80;98.60;;;;;;5073209;28;20055;-80
2023/10/07 07:39:19;;;;;;;17.42;7.88;;;16.80;98.70;;;;;;5055108;28;20044;-78
2023/10/07 07:41:55;;;;;;;;;;;16.70;98.60;;;;;;5073457;28;20056;-78
2023/10/07 07:44:32;;;;;;;15.70;7.03;;;16.80;98.70;;;;;;5040390;28;19913;-78
2023/10/07 07:47:02;;;;;;;12.52;6.30;;;16.80;99.00;;;;;;5040334;28;20044;-78
2023/10/07 07:49:36;;;;;;;14.48;6.68;;;16.80;98.60;;;;;;5072128;28;20025;-78
2023/10/07 07:52:02;;;;;;;11.55;6.03;;;16.90;98.60;;;;;;5055392;28;20029;-78
2023/10/07 07:54:29;;;;;;;13.05;6.40;;;16.90;98.50;;;;;;5055255;28;20036;-78
2023/10/07 07:56:55;;;;;;;16.50;6.47;;;16.90;98.50;;;;;;5055313;28;20043;-78
2023/10/07 07:59:22;;;;;;;18.65;7.05;;;17.00;98.20;;;;;;5055280;28;20045;-78
2023/10/07 08:01:53;;;;;;;10.82;5.65;;;17.00;98.20;;;;;;5071906;28;20032;-79
2023/10/07 08:07:23;;;;;;;13.25;5.93;;;17.10;98.20;;;;;;5018401;28;20029;-79
2023/10/07 08:09:53;;;;;;;10.40;5.93;;;17.20;98.10;;;;;;5043277;28;20096;-78
2023/10/07 08:12:34;;;;;;;13.00;6.00;;;17.20;97.90;;;;;;5076880;28;20055;-78
2023/10/07 08:15:21;;;;;;;13.55;5.53;;;17.30;97.50;;;;;;5076747;28;20380;-78
2023/10/07 08:17:56;;;;;;;10.73;6.28;;;17.30;97.30;;;;;;5075968;28;20029;-78
2023/10/07 08:20:33;;;;;;;11.73;5.53;;;17.40;97.40;;;;;;5058895;28;20021;-77
2023/10/07 08:23:07;;;;;;;13.05;6.03;;;17.40;97.10;;;;;;5058834;28;20056;-78
2023/10/07 08:25:46;;;;;;;14.20;5.97;;;17.50;97.10;;;;;;5076541;28;20025;-77
2023/10/07 08:28:18;;;;;;;11.43;5.70;;;17.60;97.00;;;;;;5076614;28;20059;-77
2023/10/07 08:30:47;;;;;;;14.85;5.88;;;17.60;97.10;;;;;;5043054;28;20052;-78
2023/10/07 08:33:15;;;;;;;12.88;6.13;;;17.70;96.40;;;;;;5076291;28;20025;-77
2023/10/07 08:35:43;;;;;;;14.50;5.80;;;17.80;96.80;;;;;;5076228;28;20071;-77
2023/10/07 08:38:37;;;;;;;11.50;6.30;;;17.80;96.70;;;;;;5075223;28;20051;-78
2023/10/07 08:41:07;;;;;;;11.80;5.80;;;17.90;96.00;;;;;;5058470;28;20064;-78
2023/10/07 08:43:43;;;;;;;12.13;6.50;;;17.90;96.20;;;;;;5058448;28;20022;-78
2023/10/07 08:46:12;;;;;;;13.65;5.68;;;18.00;95.90;;;;;;5058339;28;20055;-78
2023/10/07 08:48:42;;;;;;;16.20;6.13;;;18.10;96.10;;;;;;5058458;28;20025;-78
2023/10/07 08:51:14;;;;;;;11.75;5.55;;;18.20;95.50;;;;;;5058480;28;20088;-78
2023/10/07 08:53:41;;;;;;;12.18;5.35;;;18.20;95.50;;;;;;5058340;28;20044;-78
2023/10/07 08:56:12;;;;;;;11.00;5.13;;;18.20;95.60;;;;;;5058193;28;20108;-78
2023/10/07 08:58:41;;;;;;;14.38;5.78;;;18.20;95.10;;;;;;5058888;28;20033;-77
2023/10/07 09:01:13;;;;;;;18.27;6.10;;;18.30;95.40;;;;;;5075760;28;20021;-77
2023/10/07 09:03:41;;;;;;;15.13;6.35;;;18.30;95.30;;;;;;5075697;28;20017;-78
2023/10/07 09:06:09;;;;;;;13.43;5.30;;;18.40;95.40;;;;;;5075675;28;20056;-77
2023/10/07 09:08:35;;;;;;;12.45;6.07;;;18.50;95.10;;;;;;5075673;28;20025;-78
2023/10/07 09:11:12;;;;;;;9.20;4.45;;;18.50;95.00;;;;;;5057988;28;20033;-77
2023/10/07 09:13:39;;;;;;;12.13;5.97;;;18.60;94.60;;;;;;5058002;28;20032;-77
2023/10/07 09:16:10;;;;;;;9.25;5.30;;;18.60;94.40;;;;;;5075536;28;20087;-77
2023/10/07 09:18:41;;;;;;;11.93;6.22;;;18.60;94.70;;;;;;5075552;28;20028;-77
2023/10/07 09:21:18;;;;;;;10.25;5.07;;;18.80;94.70;;;;;;5057826;28;20021;-77
2023/10/07 09:23:47;;;;;;;8.95;5.10;;;18.90;94.80;;;;;;5075406;28;20100;-77
2023/10/07 09:26:30;;;;;;;11.40;5.80;;;19.00;94.00;;;;;;5057734;28;20080;-77
2023/10/07 09:28:58;;;;;;;;;;;19.00;93.80;;;;;;5058107;28;20021;-77
2023/10/07 09:31:27;;;;;;;11.32;5.57;;;19.00;93.20;;;;;;5075264;28;19905;-77
2023/10/07 09:33:55;;;;;;;12.90;5.47;;;19.00;93.50;;;;;;5057519;28;20059;-77
2023/10/07 09:39:31;;;;;;;9.85;4.82;;;19.00;93.10;;;;;;5074974;28;20044;-77
2023/10/07 09:41:43;;;;;;;15.65;5.65;;;19.10;92.90;;;;;;5074449;28;20033;-77
2023/10/07 09:44:37;;;;;;;11.85;5.22;;;19.20;92.70;;;;;;5074139;28;20052;-77
2023/10/07 09:47:14;;;;;;;10.15;4.80;;;19.30;92.80;;;;;;5074487;28;20051;-77
2023/10/07 09:49:39;;;;;;;10.15;5.10;;;19.40;91.90;;;;;;5057299;28;20056;-77
2023/10/07 09:52:17;;;;;;;11.07;5.38;;;19.50;92.20;;;;;;5057166;28;20029;-77
2023/10/07 09:54:57;;;;;;;11.82;5.05;;;19.50;92.10;;;;;;5074966;28;20048;-77
2023/10/07 09:57:46;;;;;;;12.30;4.72;;;19.60;92.20;;;;;;5074819;28;20080;-78
2023/10/07 10:00:38;;;;;;;7.35;5.00;;;19.70;92.40;;;;;;5074582;28;20032;-78
2023/10/07 10:03:28;;;;;;;10.55;4.82;;;19.90;91.10;;;;;;5057169;28;20024;-78
2023/10/07 10:06:07;;;;;;;11.30;4.93;;;19.90;90.80;;;;;;5056934;28;20029;-77
2023/10/07 10:08:56;;;;;;;10.82;4.80;;;20.00;91.00;;;;;;5056922;28;20032;-77
2023/10/07 10:11:44;;;;;;;13.43;5.10;;;20.00;90.20;;;;;;5056851;28;20044;-78
2023/10/07 10:16:44;;;;;;;11.15;4.22;;;20.00;90.40;;;;;;5073529;28;20044;-77
2023/10/07 10:19:26;;;;;;;12.65;5.35;;;20.10;90.00;;;;;;5073499;28;20071;-77
2023/10/07 10:21:53;;;;;;;8.50;4.40;;;20.20;90.10;;;;;;5056523;28;20029;-77
2023/10/07 10:24:23;;;;;;;9.25;4.40;;;20.30;89.80;;;;;;5056656;28;20028;-77
2023/10/07 10:26:50;;;;;;;11.50;4.70;;;20.40;90.40;;;;;;5056506;28;20021;-77
2023/10/07 10:29:25;;;;;;;13.43;5.10;;;20.50;90.00;;;;;;5074108;28;20025;-77
2023/10/07 10:31:58;;;;;;;8.57;4.00;;;20.60;89.60;;;;;;5056001;28;20024;-77
2023/10/07 10:34:26;;;;;;;11.32;4.05;;;20.60;89.20;;;;;;5073970;28;20028;-77
2023/10/07 10:36:55;;;;;;;9.00;4.50;;;20.70;89.70;;;;;;5073977;28;20047;-77
2023/10/07 10:39:31;;;;;;;11.13;4.70;;;20.70;88.00;;;;;;5056144;28;20072;-78
2023/10/07 10:42:02;;;;;;;10.82;4.70;;;20.80;87.80;;;;;;5056260;28;20017;-78
2023/10/07 10:44:36;;;;;;;11.25;4.07;;;20.90;86.80;;;;;;5074008;28;20032;-77
2023/10/07 10:47:02;;;;;;;9.48;4.20;;;20.90;86.10;;;;;;5073853;28;20025;-77
2023/10/07 10:49:30;;;;;;;10.57;4.32;;;20.90;86.90;;;;;;5056118;28;20053;-77
2023/10/07 10:51:59;;;;;;;9.93;4.35;;;21.00;87.00;;;;;;5073692;28;20048;-78
2023/10/07 10:54:25;;;;;;;10.43;4.07;;;21.00;87.00;;;;;;5073667;28;20088;-78
2023/10/07 10:56:55;;;;;;;6.43;3.60;;;21.10;88.00;;;;;;5056052;28;20029;-78
2023/10/07 10:59:33;;;;;;;12.95;4.53;;;21.20;86.40;;;;;;5055934;28;20029;-77
2023/10/07 11:02:01;;;;;;;13.48;4.65;;;21.20;86.00;;;;;;5055965;28;20494;-77
2023/10/07 11:04:27;;;;;;;10.40;3.95;;;21.30;86.00;;;;;;5055908;28;20021;-78
2023/10/07 11:06:55;;;;;;;11.40;4.75;;;21.40;86.30;;;;;;5055864;28;20055;-78
2023/10/07 11:09:34;;;;;;;10.98;4.43;;;21.40;84.50;;;;;;5055716;28;20027;-77
2023/10/07 11:12:08;;;;;;;9.98;4.43;;;21.30;84.60;;;;;;5056010;28;20029;-77
2023/10/07 11:14:35;;;;;;;9.75;3.53;;;21.30;85.40;;;;;;5055764;28;20032;-77
2023/10/07 11:17:03;;;;;;;8.93;4.22;;;21.30;83.90;;;;;;5055663;28;20040;-77
2023/10/07 11:19:30;;;;;;;10.00;4.70;;;21.30;83.60;;;;;;5055583;28;20021;-77
2023/10/07 11:21:56;;;;;;;13.05;4.18;;;21.20;84.70;;;;;;5073180;28;20029;-77
2023/10/07 11:24:28;;;;;;;9.85;3.67;;;21.10;84.50;;;;;;5055670;28;20052;-77
2023/10/07 11:26:59;;;;;;;10.60;4.50;;;21.20;84.80;;;;;;5055601;28;20041;-77
2023/10/07 11:29:32;;;;;;;9.48;4.65;;;21.20;84.90;;;;;;5072422;28;20025;-77
2023/10/07 11:32:08;;;;;;;9.98;4.38;;;21.30;83.90;;;;;;5055796;28;20033;-77
2023/10/07 11:34:39;;;;;;;8.25;4.03;;;21.40;83.60;;;;;;5055412;28;20041;-77
2023/10/07 11:37:21;;;;;;;9.80;4.03;;;21.40;84.10;;;;;;5055480;28;20422;-77
2023/10/07 11:39:47;;;;;;;11.80;4.63;;;21.50;84.60;;;;;;5073008;28;20051;-77
2023/10/07 11:42:14;;;;;;;12.05;4.45;;;21.50;84.00;;;;;;5055451;28;20021;-77
2023/10/07 11:44:41;;;;;;;8.75;4.50;;;21.50;82.60;;;;;;5059665;28;20063;-78
2023/10/07 11:47:07;;;;;;;11.65;4.57;;;21.40;83.60;;;;;;5076434;28;20081;-77
2023/10/07 11:49:36;;;;;;;10.48;3.95;;;21.50;84.00;;;;;;5059578;28;20049;-77
2023/10/07 11:52:06;;;;;;;11.48;4.55;;;21.60;84.00;;;;;;5076234;28;20134;-77
2023/10/07 11:54:40;;;;;;;9.38;4.35;;;21.70;84.50;;;;;;5059374;28;20024;-77
2023/10/07 11:57:06;;;;;;;11.48;4.28;;;21.80;83.70;;;;;;5059496;28;20021;-77
2023/10/07 11:59:37;;;;;;;11.43;4.63;;;21.90;83.40;;;;;;5042826;28;20025;-77
2023/10/07 12:02:09;;;;;;;10.65;5.35;;;21.90;82.50;;;;;;5059323;28;20033;-77
2023/10/07 12:04:39;;;;;;;9.75;4.03;;;21.90;81.90;;;;;;5060530;28;20029;-78
2023/10/07 12:07:08;;;;;;;10.43;3.80;;;22.00;81.80;;;;;;5059156;28;20044;-78
2023/10/07 12:09:34;;;;;;;9.40;4.95;;;22.00;82.50;;;;;;5059115;28;20044;-77
2023/10/07 12:12:02;;;;;;;8.57;4.53;;;22.00;81.60;;;;;;5059096;28;20028;-77
2023/10/07 12:14:28;;;;;;;8.05;4.28;;;22.10;82.00;;;;;;5059078;28;20033;-77
2023/10/07 12:16:55;;;;;;;10.25;4.05;;;22.10;81.90;;;;;;5058933;28;20040;-77
2023/10/07 12:19:21;;;;;;;9.63;4.07;;;22.20;82.30;;;;;;5076614;28;20025;-77
2023/10/07 12:21:50;;;;;;;10.95;3.90;;;22.40;81.80;;;;;;5076519;28;20052;-77
2023/10/07 12:24:18;;;;;;;8.20;3.40;;;22.50;81.40;;;;;;5076555;28;20071;-77
2023/10/07 12:26:50;;;;;;;11.70;3.88;;;22.60;81.20;;;;;;5058822;28;20017;-77
2023/10/07 12:29:17;;;;;;;8.55;3.90;;;22.70;79.50;;;;;;5076637;28;20017;-77
2023/10/07 12:31:44;;;;;;;9.88;4.22;;;22.70;79.50;;;;;;5042309;28;20029;-77
2023/10/07 12:34:15;;;;;;;8.15;3.25;;;22.50;79.60;;;;;;5058681;28;20143;-78
2023/10/07 12:36:40;;;;;;;8.32;3.65;;;22.50;79.80;;;;;;5059173;28;20092;-77
2023/10/07 12:39:10;;;;;;;7.75;3.40;;;22.60;79.90;;;;;;5075229;28;20061;-77
2023/10/07 12:41:39;;;;;;;6.43;3.28;;;22.60;79.10;;;;;;5058476;28;20017;-77
2023/10/07 12:44:09;;;;;;;8.90;3.60;;;22.60;79.60;;;;;;5076155;28;20045;-77
2023/10/07 12:46:36;;;;;;;12.48;4.07;;;22.60;79.70;;;;;;5076090;28;20457;-78
2023/10/07 12:49:03;;;;;;;9.52;3.78;;;22.70;79.80;;;;;;5076076;28;20104;-77
2023/10/07 12:51:31;;;;;;;9.40;3.35;;;22.70;79.80;;;;;;5075143;28;20032;-77
2023/10/07 12:53:59;;;;;;;7.60;3.40;;;22.80;80.40;;;;;;5057981;28;20096;-77
2023/10/07 12:56:26;;;;;;;9.88;3.28;;;22.80;80.40;;;;;;5058275;28;20021;-78
2023/10/07 12:58:53;;;;;;;6.90;3.15;;;22.90;80.00;;;;;;5058246;28;20021;-77
2023/10/07 13:01:19;;;;;;;7.53;3.08;;;23.00;79.70;;;;;;5058089;28;20021;-77
2023/10/07 13:03:45;;;;;;;9.52;3.35;;;23.00;78.70;;;;;;5058148;28;20089;-77
2023/10/07 13:06:14;;;;;;;7.10;3.25;;;23.00;78.90;;;;;;5075825;28;20029;-77
2023/10/07 13:08:40;;;;;;;11.02;3.50;;;23.10;78.90;;;;;;5075732;28;20096;-77
2023/10/07 13:11:11;;;;;;;7.43;3.55;;;23.10;78.40;;;;;;5058057;28;20021;-77
2023/10/07 13:13:46;;;;;;;12.20;3.75;;;23.20;78.60;;;;;;5074703;28;20021;-78
2023/10/07 13:16:13;;;;;;;7.20;3.13;;;23.20;77.20;;;;;;5057909;28;20101;-77
2023/10/07 13:18:44;;;;;;;8.63;3.58;;;23.10;77.70;;;;;;5057877;28;20017;-78
2023/10/07 13:21:29;;;;;;;10.10;3.65;;;23.00;77.40;;;;;;5075443;28;20021;-78
2023/10/07 13:23:59;;;;;;;9.52;4.22;;;23.00;77.50;;;;;;5057880;28;20032;-77
2023/10/07 13:26:24;;;;;;;10.30;3.60;;;23.00;77.90;;;;;;5075332;28;20090;-77
2023/10/07 13:28:50;;;;;;;7.47;3.35;;;23.10;78.60;;;;;;5057674;28;20025;-78
2023/10/07 13:31:17;;;;;;;8.55;3.47;;;23.10;78.00;;;;;;5075244;28;20029;-78
2023/10/07 13:33:45;;;;;;;8.05;3.33;;;23.10;78.90;;;;;;5057618;28;20025;-77
2023/10/07 13:36:11;;;;;;;8.13;3.42;;;23.30;78.30;;;;;;5057513;28;20032;-78
2023/10/07 13:38:38;;;;;;;8.10;3.15;;;23.30;78.20;;;;;;5074027;28;20053;-78
2023/10/07 13:41:04;;;;;;;8.05;3.33;;;23.40;77.80;;;;;;5041172;28;20040;-78
2023/10/07 13:43:33;;;;;;;9.10;3.30;;;23.50;78.30;;;;;;5075041;28;20018;-78
2023/10/07 13:46:01;;;;;;;7.03;3.63;;;23.50;77.70;;;;;;5057449;28;20025;-78